Haines, AK

12:29 AM AKDT on August 28, 2014 (GMT -0800)
Skagway | Change Station
CLOSE
Current Station
Airport
Location: Skagway,
Elevation: 16 ft
Nearby Weather Stations

Elev 16 ft 59.46 °N, 135.32 °W | Updated 36 minutes ago

Overcast
Overcast
54 °F
Feels Like 54 °F
N
0
Wind Variable Wind from North

Today
High -- | Low -- °F
--% Chance of Precip.
Yesterday
High -- | Low -- °F
Precip. -- in
5:50 AM 8:14 PM
Waxing Crescent, 7% visible
Pressure 30.00 in
Visibility 10.0 miles
Clouds Overcast 7500 ft
Dew Point 48 °F
Humidity 80%
Rainfall 0.00 in
Snow Depth Not available.
UV 0 out of 12
Pollen Not available.
Air Quality Not available.
Flu Activity Not available.
METAR PAGY 280753Z AUTO 00000KT 10SM OVC075 12/09 A3000 RMK AO2 SLP158 T01220089 TSNO

More Conditions Fewer Conditions

Pressure 30.00 in
Visibility 10.0 miles
Clouds Overcast 7500 ft
Dew Point 48 °F
Humidity 80%
Rainfall 0.00 in
Snow Depth Not available.
UV 0 out of 12
Pollen Not available.
Air Quality Not available.
Flu Activity Not available.
METAR PAGY 280753Z AUTO 00000KT 10SM OVC075 12/09 A3000 RMK AO2 SLP158 T01220089 TSNO

More Conditions Fewer Conditions

10-Day Weather Forecast

Almanac

Astronomy

Aug. 28, 2014 Rise Set
Actual Time 5:50 AM AKDT 8:14 PM AKDT
Civil Twilight 5:05 AM AKDT 8:58 PM AKDT
Nautical Twilight 4:06 AM AKDT 9:57 PM AKDT
Astronomical Twilight 2:47 AM AKDT 11:13 PM AKDT
Moon 9:42 AM AKDT 8:44 PM AKDT
Length of Visible Light 15h 53m
Length of Day
14h 24m
Tomorrow will be 5m 10s shorter.
Waxing Crescent, 7% of the Moon is Illuminated
Today
Waxing Crescent
Sep 2
First Quarter
Sep 8
Full
Sep 15
Last Quarter
Sep 24
New

Community

WunderPhotos

Upload Photos

1,747,918 photos uploaded!

Nearby

Snow Depth

Station Depth Elevation
Long Lake 0 in 820 ft
Upper Tsaina River 0 in 1750 ft
Moraine 0 in 2100 ft
Granite Creek 0 in 1240 ft
Grandview 16 in 1100 ft

Earthquake Activity

City Distance Mag. Time & Date
No recent earthquake activity has been reported nearby.
Minimum magnitude displayed is 2.5.

Coastal Water Temperatures

Place Temperature
No Stations Reporting

Nearby Weather Stations